Terminal Aerodrome Forecast
Issued by NWS Quad Cities IA IL

Home | Current Version | Previous Version | Text Only | Print | Product List | Glossary On
Versions: 1 2 3 4 5 6 7 8 9 10 11 12 13 14 15 16 17 18 19 20 21 22 23 24 25 26 27 28 29 30 31 32
711
FTUS43 KDVN 061410 AAB
TAFMLI
TAF AMD
KMLI 061410Z 0614/0712 00000KT 1/4SM FG VV003
      TEMPO 0614/0616 2SM BR OVC005
     FM061600 28013KT 5SM BR SCT009 BKN025
     FM061800 29013G21KT P6SM SCT080
     FM062300 27011KT P6SM SKC=

USA.gov is the U.S. government's official web portal to all federal, state and local government web resources and services.